sensor_id;sensor_type;location;lat;lon;timestamp;P1;durP1;ratioP1;P2;durP2;ratioP2
49175;SDS011;35012;47.200;9.748;2024-02-21T00:01:36;2.33;;;2.23;;
49175;SDS011;35012;47.200;9.748;2024-02-21T00:04:02;2.30;;;2.20;;
49175;SDS011;35012;47.200;9.748;2024-02-21T00:06:27;2.13;;;2.03;;
49175;SDS011;35012;47.200;9.748;2024-02-21T00:08:53;2.30;;;2.20;;
49175;SDS011;35012;47.200;9.748;2024-02-21T00:11:18;2.00;;;1.90;;
49175;SDS011;35012;47.200;9.748;2024-02-21T00:13:44;2.43;;;2.33;;
49175;SDS011;35012;47.200;9.748;2024-02-21T00:16:10;2.30;;;2.20;;
49175;SDS011;35012;47.200;9.748;2024-02-21T00:18:36;1.90;;;1.90;;
49175;SDS011;35012;47.200;9.748;2024-02-21T00:21:02;2.37;;;2.27;;
49175;SDS011;35012;47.200;9.748;2024-02-21T00:23:28;2.30;;;2.20;;
49175;SDS011;35012;47.200;9.748;2024-02-21T00:25:54;2.30;;;2.20;;
49175;SDS011;35012;47.200;9.748;2024-02-21T00:28:19;2.40;;;2.30;;
49175;SDS011;35012;47.200;9.748;2024-02-21T00:30:46;1.67;;;1.67;;
49175;SDS011;35012;47.200;9.748;2024-02-21T00:33:13;2.20;;;2.10;;
49175;SDS011;35012;47.200;9.748;2024-02-21T00:35:38;2.20;;;2.10;;
49175;SDS011;35012;47.200;9.748;2024-02-21T00:38:04;2.23;;;2.13;;
49175;SDS011;35012;47.200;9.748;2024-02-21T00:40:30;2.10;;;2.00;;
49175;SDS011;35012;47.200;9.748;2024-02-21T00:42:56;2.60;;;2.50;;
49175;SDS011;35012;47.200;9.748;2024-02-21T00:45:21;1.70;;;1.70;;
49175;SDS011;35012;47.200;9.748;2024-02-21T00:47:47;1.77;;;1.77;;
49175;SDS011;35012;47.200;9.748;2024-02-21T00:50:13;1.73;;;1.73;;
49175;SDS011;35012;47.200;9.748;2024-02-21T00:52:38;1.70;;;1.70;;
49175;SDS011;35012;47.200;9.748;2024-02-21T00:55:04;2.30;;;2.20;;
49175;SDS011;35012;47.200;9.748;2024-02-21T00:57:30;2.33;;;2.23;;
49175;SDS011;35012;47.200;9.748;2024-02-21T00:59:57;2.37;;;2.27;;
49175;SDS011;35012;47.200;9.748;2024-02-21T01:02:22;2.60;;;2.40;;
49175;SDS011;35012;47.200;9.748;2024-02-21T01:04:48;2.50;;;2.40;;
49175;SDS011;35012;47.200;9.748;2024-02-21T01:07:13;2.33;;;2.23;;
49175;SDS011;35012;47.200;9.748;2024-02-21T01:09:39;2.93;;;2.73;;
49175;SDS011;35012;47.200;9.748;2024-02-21T01:12:05;2.17;;;2.07;;
49175;SDS011;35012;47.200;9.748;2024-02-21T01:14:30;1.70;;;1.70;;
49175;SDS011;35012;47.200;9.748;2024-02-21T01:16:56;2.23;;;2.13;;
49175;SDS011;35012;47.200;9.748;2024-02-21T01:19:22;3.10;;;2.10;;
49175;SDS011;35012;47.200;9.748;2024-02-21T01:21:48;1.70;;;1.70;;
49175;SDS011;35012;47.200;9.748;2024-02-21T01:24:13;2.30;;;2.20;;
49175;SDS011;35012;47.200;9.748;2024-02-21T01:26:39;2.30;;;2.20;;
49175;SDS011;35012;47.200;9.748;2024-02-21T01:29:05;2.20;;;2.10;;
49175;SDS011;35012;47.200;9.748;2024-02-21T01:31:31;2.23;;;2.13;;
49175;SDS011;35012;47.200;9.748;2024-02-21T01:33:56;1.70;;;1.70;;
49175;SDS011;35012;47.200;9.748;2024-02-21T01:36:23;1.80;;;1.80;;
49175;SDS011;35012;47.200;9.748;2024-02-21T01:38:48;1.73;;;1.73;;
49175;SDS011;35012;47.200;9.748;2024-02-21T01:41:14;2.27;;;2.17;;
49175;SDS011;35012;47.200;9.748;2024-02-21T01:43:41;2.20;;;2.10;;
49175;SDS011;35012;47.200;9.748;2024-02-21T01:46:07;2.10;;;2.00;;
49175;SDS011;35012;47.200;9.748;2024-02-21T01:48:33;2.10;;;2.00;;
49175;SDS011;35012;47.200;9.748;2024-02-21T01:50:58;2.10;;;2.00;;
49175;SDS011;35012;47.200;9.748;2024-02-21T01:53:29;2.20;;;2.10;;
49175;SDS011;35012;47.200;9.748;2024-02-21T01:55:56;1.90;;;1.90;;
49175;SDS011;35012;47.200;9.748;2024-02-21T01:58:21;1.60;;;1.60;;
49175;SDS011;35012;47.200;9.748;2024-02-21T02:00:47;2.20;;;2.10;;
49175;SDS011;35012;47.200;9.748;2024-02-21T02:03:13;2.20;;;2.10;;
49175;SDS011;35012;47.200;9.748;2024-02-21T02:05:48;2.20;;;2.10;;
49175;SDS011;35012;47.200;9.748;2024-02-21T02:08:15;1.80;;;1.77;;
49175;SDS011;35012;47.200;9.748;2024-02-21T02:10:41;2.50;;;2.40;;
49175;SDS011;35012;47.200;9.748;2024-02-21T02:13:07;2.50;;;2.40;;
49175;SDS011;35012;47.200;9.748;2024-02-21T02:15:43;2.20;;;2.10;;
49175;SDS011;35012;47.200;9.748;2024-02-21T02:18:13;2.20;;;2.10;;
49175;SDS011;35012;47.200;9.748;2024-02-21T02:20:39;2.00;;;2.00;;
49175;SDS011;35012;47.200;9.748;2024-02-21T02:25:55;1.70;;;1.70;;
49175;SDS011;35012;47.200;9.748;2024-02-21T02:28:21;2.20;;;2.10;;
49175;SDS011;35012;47.200;9.748;2024-02-21T02:30:47;2.20;;;2.10;;
49175;SDS011;35012;47.200;9.748;2024-02-21T02:33:13;2.50;;;2.40;;
49175;SDS011;35012;47.200;9.748;2024-02-21T02:35:39;2.20;;;2.10;;
49175;SDS011;35012;47.200;9.748;2024-02-21T02:38:05;1.63;;;1.63;;
49175;SDS011;35012;47.200;9.748;2024-02-21T02:40:31;1.90;;;1.90;;
49175;SDS011;35012;47.200;9.748;2024-02-21T02:42:58;2.10;;;2.00;;
49175;SDS011;35012;47.200;9.748;2024-02-21T02:45:23;1.90;;;1.90;;
49175;SDS011;35012;47.200;9.748;2024-02-21T02:47:51;1.60;;;1.60;;
49175;SDS011;35012;47.200;9.748;2024-02-21T02:50:22;1.50;;;1.50;;
49175;SDS011;35012;47.200;9.748;2024-02-21T02:52:48;2.00;;;1.90;;
49175;SDS011;35012;47.200;9.748;2024-02-21T02:55:14;2.10;;;2.00;;
49175;SDS011;35012;47.200;9.748;2024-02-21T02:57:39;1.47;;;1.47;;
49175;SDS011;35012;47.200;9.748;2024-02-21T03:00:07;1.60;;;1.60;;
49175;SDS011;35012;47.200;9.748;2024-02-21T03:02:33;1.80;;;1.80;;
49175;SDS011;35012;47.200;9.748;2024-02-21T03:04:59;2.23;;;2.13;;
49175;SDS011;35012;47.200;9.748;2024-02-21T03:07:25;2.20;;;2.10;;
49175;SDS011;35012;47.200;9.748;2024-02-21T03:09:50;2.07;;;1.97;;
49175;SDS011;35012;47.200;9.748;2024-02-21T03:12:17;1.97;;;1.93;;
49175;SDS011;35012;47.200;9.748;2024-02-21T03:14:53;1.80;;;1.80;;
49175;SDS011;35012;47.200;9.748;2024-02-21T03:17:18;2.10;;;2.00;;
49175;SDS011;35012;47.200;9.748;2024-02-21T03:19:44;1.70;;;1.70;;
49175;SDS011;35012;47.200;9.748;2024-02-21T03:22:10;2.10;;;2.00;;
49175;SDS011;35012;47.200;9.748;2024-02-21T03:24:35;1.60;;;1.60;;
49175;SDS011;35012;47.200;9.748;2024-02-21T03:27:01;1.67;;;1.67;;
49175;SDS011;35012;47.200;9.748;2024-02-21T03:29:27;1.87;;;1.77;;
49175;SDS011;35012;47.200;9.748;2024-02-21T03:31:52;2.00;;;1.97;;
49175;SDS011;35012;47.200;9.748;2024-02-21T03:34:18;1.67;;;1.67;;
49175;SDS011;35012;47.200;9.748;2024-02-21T03:36:43;2.17;;;2.07;;
49175;SDS011;35012;47.200;9.748;2024-02-21T03:39:09;2.10;;;2.00;;
49175;SDS011;35012;47.200;9.748;2024-02-21T03:41:35;2.20;;;2.10;;
49175;SDS011;35012;47.200;9.748;2024-02-21T03:44:01;2.10;;;2.00;;
49175;SDS011;35012;47.200;9.748;2024-02-21T03:46:27;2.10;;;2.00;;
49175;SDS011;35012;47.200;9.748;2024-02-21T03:48:52;1.80;;;1.80;;
49175;SDS011;35012;47.200;9.748;2024-02-21T03:51:18;2.37;;;2.27;;
49175;SDS011;35012;47.200;9.748;2024-02-21T03:53:44;2.20;;;2.10;;
49175;SDS011;35012;47.200;9.748;2024-02-21T03:56:09;2.10;;;2.00;;
49175;SDS011;35012;47.200;9.748;2024-02-21T03:58:35;2.20;;;2.10;;
49175;SDS011;35012;47.200;9.748;2024-02-21T04:01:00;2.40;;;2.30;;
49175;SDS011;35012;47.200;9.748;2024-02-21T04:03:26;2.33;;;2.23;;
49175;SDS011;35012;47.200;9.748;2024-02-21T04:05:52;2.27;;;2.17;;
49175;SDS011;35012;47.200;9.748;2024-02-21T04:08:18;2.50;;;2.40;;
49175;SDS011;35012;47.200;9.748;2024-02-21T04:10:44;1.80;;;1.80;;
49175;SDS011;35012;47.200;9.748;2024-02-21T04:13:09;2.10;;;2.00;;
49175;SDS011;35012;47.200;9.748;2024-02-21T04:15:35;2.17;;;2.07;;
49175;SDS011;35012;47.200;9.748;2024-02-21T04:18:01;1.70;;;1.70;;
49175;SDS011;35012;47.200;9.748;2024-02-21T04:20:28;2.23;;;2.13;;
49175;SDS011;35012;47.200;9.748;2024-02-21T04:22:54;2.27;;;2.17;;
49175;SDS011;35012;47.200;9.748;2024-02-21T04:25:20;2.07;;;2.00;;
49175;SDS011;35012;47.200;9.748;2024-02-21T04:27:46;2.17;;;2.07;;
49175;SDS011;35012;47.200;9.748;2024-02-21T04:33:17;2.00;;;1.90;;
49175;SDS011;35012;47.200;9.748;2024-02-21T04:35:43;1.50;;;1.50;;
49175;SDS011;35012;47.200;9.748;2024-02-21T04:38:09;1.50;;;1.50;;
49175;SDS011;35012;47.200;9.748;2024-02-21T04:40:34;1.90;;;1.90;;
49175;SDS011;35012;47.200;9.748;2024-02-21T04:43:00;2.30;;;2.20;;
49175;SDS011;35012;47.200;9.748;2024-02-21T04:45:25;1.90;;;1.90;;
49175;SDS011;35012;47.200;9.748;2024-02-21T04:47:51;1.87;;;1.87;;
49175;SDS011;35012;47.200;9.748;2024-02-21T04:50:16;1.90;;;1.90;;
49175;SDS011;35012;47.200;9.748;2024-02-21T04:52:42;2.40;;;2.30;;
49175;SDS011;35012;47.200;9.748;2024-02-21T04:55:08;2.10;;;2.00;;
49175;SDS011;35012;47.200;9.748;2024-02-21T04:57:34;2.10;;;2.00;;
49175;SDS011;35012;47.200;9.748;2024-02-21T04:59:59;2.03;;;1.93;;
49175;SDS011;35012;47.200;9.748;2024-02-21T05:02:25;1.83;;;1.83;;
49175;SDS011;35012;47.200;9.748;2024-02-21T05:04:52;1.57;;;1.57;;
49175;SDS011;35012;47.200;9.748;2024-02-21T05:07:17;1.97;;;1.87;;
49175;SDS011;35012;47.200;9.748;2024-02-21T05:09:44;2.10;;;2.00;;
49175;SDS011;35012;47.200;9.748;2024-02-21T05:12:10;2.03;;;1.97;;
49175;SDS011;35012;47.200;9.748;2024-02-21T05:14:36;2.07;;;1.97;;
49175;SDS011;35012;47.200;9.748;2024-02-21T05:17:02;2.07;;;1.97;;
49175;SDS011;35012;47.200;9.748;2024-02-21T05:19:29;1.93;;;1.93;;
49175;SDS011;35012;47.200;9.748;2024-02-21T05:21:55;2.00;;;1.90;;
49175;SDS011;35012;47.200;9.748;2024-02-21T05:24:21;1.90;;;1.90;;
49175;SDS011;35012;47.200;9.748;2024-02-21T05:26:46;1.60;;;1.60;;
49175;SDS011;35012;47.200;9.748;2024-02-21T05:29:12;2.33;;;2.23;;
49175;SDS011;35012;47.200;9.748;2024-02-21T05:34:18;2.30;;;2.20;;
49175;SDS011;35012;47.200;9.748;2024-02-21T05:36:44;1.80;;;1.80;;
49175;SDS011;35012;47.200;9.748;2024-02-21T05:39:11;2.23;;;2.13;;
49175;SDS011;35012;47.200;9.748;2024-02-21T05:41:37;2.20;;;2.10;;
49175;SDS011;35012;47.200;9.748;2024-02-21T05:44:02;2.47;;;2.37;;
49175;SDS011;35012;47.200;9.748;2024-02-21T05:46:28;2.80;;;2.60;;
49175;SDS011;35012;47.200;9.748;2024-02-21T05:48:54;1.97;;;1.87;;
49175;SDS011;35012;47.200;9.748;2024-02-21T05:51:19;1.83;;;1.83;;
49175;SDS011;35012;47.200;9.748;2024-02-21T05:53:45;2.30;;;2.20;;
49175;SDS011;35012;47.200;9.748;2024-02-21T05:56:11;2.40;;;2.30;;
49175;SDS011;35012;47.200;9.748;2024-02-21T05:58:37;2.60;;;2.50;;
49175;SDS011;35012;47.200;9.748;2024-02-21T06:01:03;1.70;;;1.70;;
49175;SDS011;35012;47.200;9.748;2024-02-21T06:03:31;2.30;;;2.20;;
49175;SDS011;35012;47.200;9.748;2024-02-21T06:05:57;2.27;;;1.93;;
49175;SDS011;35012;47.200;9.748;2024-02-21T06:08:23;2.73;;;2.53;;
49175;SDS011;35012;47.200;9.748;2024-02-21T06:10:48;2.30;;;2.20;;
49175;SDS011;35012;47.200;9.748;2024-02-21T06:13:17;2.30;;;2.20;;
49175;SDS011;35012;47.200;9.748;2024-02-21T06:15:42;2.20;;;2.10;;
49175;SDS011;35012;47.200;9.748;2024-02-21T06:18:08;2.50;;;2.40;;
49175;SDS011;35012;47.200;9.748;2024-02-21T06:20:33;2.47;;;2.37;;
49175;SDS011;35012;47.200;9.748;2024-02-21T06:23:01;2.87;;;2.67;;
49175;SDS011;35012;47.200;9.748;2024-02-21T06:25:26;1.60;;;1.60;;
49175;SDS011;35012;47.200;9.748;2024-02-21T06:27:52;2.10;;;2.00;;
49175;SDS011;35012;47.200;9.748;2024-02-21T06:30:17;2.63;;;2.53;;
49175;SDS011;35012;47.200;9.748;2024-02-21T06:32:43;2.10;;;2.00;;
49175;SDS011;35012;47.200;9.748;2024-02-21T06:35:08;2.60;;;2.50;;
49175;SDS011;35012;47.200;9.748;2024-02-21T06:37:34;2.60;;;2.50;;
49175;SDS011;35012;47.200;9.748;2024-02-21T06:40:00;2.40;;;2.30;;
49175;SDS011;35012;47.200;9.748;2024-02-21T06:42:25;1.90;;;1.80;;
49175;SDS011;35012;47.200;9.748;2024-02-21T06:44:51;2.30;;;2.20;;
49175;SDS011;35012;47.200;9.748;2024-02-21T06:47:17;2.23;;;2.13;;
49175;SDS011;35012;47.200;9.748;2024-02-21T06:49:42;2.40;;;2.30;;
49175;SDS011;35012;47.200;9.748;2024-02-21T06:52:08;2.00;;;1.90;;
49175;SDS011;35012;47.200;9.748;2024-02-21T06:54:33;2.27;;;2.17;;
49175;SDS011;35012;47.200;9.748;2024-02-21T06:56:59;2.30;;;2.20;;
49175;SDS011;35012;47.200;9.748;2024-02-21T06:59:24;1.77;;;1.77;;
49175;SDS011;35012;47.200;9.748;2024-02-21T07:01:53;1.63;;;1.63;;
49175;SDS011;35012;47.200;9.748;2024-02-21T07:04:19;2.10;;;2.00;;
49175;SDS011;35012;47.200;9.748;2024-02-21T07:06:44;2.07;;;1.97;;
49175;SDS011;35012;47.200;9.748;2024-02-21T07:09:10;1.60;;;1.60;;
49175;SDS011;35012;47.200;9.748;2024-02-21T07:11:36;2.03;;;1.93;;
49175;SDS011;35012;47.200;9.748;2024-02-21T07:14:01;2.53;;;2.43;;
49175;SDS011;35012;47.200;9.748;2024-02-21T07:16:27;2.03;;;1.93;;
49175;SDS011;35012;47.200;9.748;2024-02-21T07:18:53;1.93;;;1.83;;
49175;SDS011;35012;47.200;9.748;2024-02-21T07:21:20;2.27;;;2.17;;
49175;SDS011;35012;47.200;9.748;2024-02-21T07:23:45;4.43;;;4.07;;
49175;SDS011;35012;47.200;9.748;2024-02-21T07:26:11;4.90;;;2.17;;
49175;SDS011;35012;47.200;9.748;2024-02-21T07:28:36;2.67;;;2.57;;
49175;SDS011;35012;47.200;9.748;2024-02-21T07:31:02;2.30;;;2.20;;
49175;SDS011;35012;47.200;9.748;2024-02-21T07:33:28;2.50;;;2.40;;
49175;SDS011;35012;47.200;9.748;2024-02-21T07:35:53;2.70;;;2.60;;
49175;SDS011;35012;47.200;9.748;2024-02-21T07:38:19;3.47;;;3.17;;
49175;SDS011;35012;47.200;9.748;2024-02-21T07:40:45;3.43;;;2.83;;
49175;SDS011;35012;47.200;9.748;2024-02-21T07:43:10;3.37;;;3.10;;
49175;SDS011;35012;47.200;9.748;2024-02-21T07:45:36;4.03;;;3.73;;
49175;SDS011;35012;47.200;9.748;2024-02-21T07:48:02;2.47;;;2.37;;
49175;SDS011;35012;47.200;9.748;2024-02-21T07:50:27;2.13;;;2.03;;
49175;SDS011;35012;47.200;9.748;2024-02-21T07:52:53;3.20;;;3.00;;
49175;SDS011;35012;47.200;9.748;2024-02-21T07:55:19;2.07;;;1.97;;
49175;SDS011;35012;47.200;9.748;2024-02-21T07:57:44;2.10;;;2.00;;
49175;SDS011;35012;47.200;9.748;2024-02-21T08:00:10;1.90;;;1.80;;
49175;SDS011;35012;47.200;9.748;2024-02-21T08:02:42;2.00;;;1.90;;
49175;SDS011;35012;47.200;9.748;2024-02-21T08:05:09;2.70;;;2.50;;
49175;SDS011;35012;47.200;9.748;2024-02-21T08:07:34;2.10;;;2.00;;
49175;SDS011;35012;47.200;9.748;2024-02-21T08:10:00;3.43;;;3.00;;
49175;SDS011;35012;47.200;9.748;2024-02-21T08:12:25;2.63;;;2.50;;
49175;SDS011;35012;47.200;9.748;2024-02-21T08:14:52;2.30;;;2.20;;
49175;SDS011;35012;47.200;9.748;2024-02-21T08:17:17;7.17;;;2.33;;
49175;SDS011;35012;47.200;9.748;2024-02-21T08:19:43;2.37;;;2.17;;
49175;SDS011;35012;47.200;9.748;2024-02-21T08:22:08;1.50;;;1.50;;
49175;SDS011;35012;47.200;9.748;2024-02-21T08:24:34;1.30;;;1.30;;
49175;SDS011;35012;47.200;9.748;2024-02-21T08:26:59;1.40;;;1.40;;
49175;SDS011;35012;47.200;9.748;2024-02-21T08:29:25;1.30;;;1.30;;
49175;SDS011;35012;47.200;9.748;2024-02-21T08:31:50;1.23;;;1.23;;
49175;SDS011;35012;47.200;9.748;2024-02-21T08:34:16;1.20;;;1.20;;
49175;SDS011;35012;47.200;9.748;2024-02-21T08:36:43;1.77;;;1.40;;
49175;SDS011;35012;47.200;9.748;2024-02-21T08:39:08;1.20;;;1.20;;
49175;SDS011;35012;47.200;9.748;2024-02-21T08:41:34;2.63;;;1.50;;
49175;SDS011;35012;47.200;9.748;2024-02-21T08:44:00;1.20;;;1.20;;
49175;SDS011;35012;47.200;9.748;2024-02-21T08:46:26;1.10;;;1.10;;
49175;SDS011;35012;47.200;9.748;2024-02-21T08:48:52;1.67;;;1.57;;
49175;SDS011;35012;47.200;9.748;2024-02-21T08:51:18;1.97;;;1.87;;
49175;SDS011;35012;47.200;9.748;2024-02-21T08:53:44;1.27;;;1.27;;
49175;SDS011;35012;47.200;9.748;2024-02-21T08:56:12;1.60;;;1.50;;
49175;SDS011;35012;47.200;9.748;2024-02-21T08:58:41;1.53;;;1.43;;
49175;SDS011;35012;47.200;9.748;2024-02-21T09:01:07;1.90;;;1.80;;
49175;SDS011;35012;47.200;9.748;2024-02-21T09:03:36;1.47;;;1.47;;
49175;SDS011;35012;47.200;9.748;2024-02-21T09:06:04;1.20;;;1.20;;
49175;SDS011;35012;47.200;9.748;2024-02-21T09:08:30;1.23;;;1.23;;
49175;SDS011;35012;47.200;9.748;2024-02-21T09:10:55;1.10;;;1.10;;
49175;SDS011;35012;47.200;9.748;2024-02-21T09:13:21;1.10;;;1.10;;
49175;SDS011;35012;47.200;9.748;2024-02-21T09:15:49;1.60;;;1.50;;
49175;SDS011;35012;47.200;9.748;2024-02-21T09:18:18;1.30;;;1.30;;
49175;SDS011;35012;47.200;9.748;2024-02-21T09:20:43;1.43;;;1.43;;
49175;SDS011;35012;47.200;9.748;2024-02-21T09:23:09;1.20;;;1.20;;
49175;SDS011;35012;47.200;9.748;2024-02-21T09:25:35;1.20;;;1.20;;
49175;SDS011;35012;47.200;9.748;2024-02-21T09:28:01;0.90;;;0.90;;
49175;SDS011;35012;47.200;9.748;2024-02-21T09:30:27;1.10;;;1.10;;
49175;SDS011;35012;47.200;9.748;2024-02-21T09:32:53;1.13;;;1.13;;
49175;SDS011;35012;47.200;9.748;2024-02-21T09:35:18;1.00;;;1.00;;
49175;SDS011;35012;47.200;9.748;2024-02-21T09:37:44;1.93;;;1.83;;
49175;SDS011;35012;47.200;9.748;2024-02-21T09:40:10;1.50;;;1.50;;
49175;SDS011;35012;47.200;9.748;2024-02-21T09:42:39;1.27;;;1.27;;
49175;SDS011;35012;47.200;9.748;2024-02-21T09:45:15;1.93;;;1.83;;
49175;SDS011;35012;47.200;9.748;2024-02-21T09:47:50;1.13;;;1.13;;
49175;SDS011;35012;47.200;9.748;2024-02-21T09:50:21;5.60;;;1.77;;
49175;SDS011;35012;47.200;9.748;2024-02-21T09:52:48;1.80;;;1.77;;
49175;SDS011;35012;47.200;9.748;2024-02-21T09:55:13;1.37;;;1.37;;
49175;SDS011;35012;47.200;9.748;2024-02-21T09:57:40;1.63;;;1.57;;
49175;SDS011;35012;47.200;9.748;2024-02-21T10:00:06;1.40;;;1.40;;
49175;SDS011;35012;47.200;9.748;2024-02-21T10:02:33;2.13;;;2.03;;
49175;SDS011;35012;47.200;9.748;2024-02-21T10:04:59;1.27;;;1.27;;
49175;SDS011;35012;47.200;9.748;2024-02-21T10:07:24;1.77;;;1.67;;
49175;SDS011;35012;47.200;9.748;2024-02-21T10:10:11;1.10;;;1.10;;
49175;SDS011;35012;47.200;9.748;2024-02-21T10:12:37;1.77;;;1.77;;
49175;SDS011;35012;47.200;9.748;2024-02-21T10:15:13;2.23;;;2.13;;
49175;SDS011;35012;47.200;9.748;2024-02-21T10:17:39;1.97;;;1.90;;
49175;SDS011;35012;47.200;9.748;2024-02-21T10:20:08;2.10;;;2.00;;
49175;SDS011;35012;47.200;9.748;2024-02-21T10:22:35;3.20;;;2.93;;
49175;SDS011;35012;47.200;9.748;2024-02-21T10:25:11;2.47;;;2.37;;
49175;SDS011;35012;47.200;9.748;2024-02-21T10:27:38;2.60;;;2.50;;
49175;SDS011;35012;47.200;9.748;2024-02-21T10:30:07;2.50;;;2.40;;
49175;SDS011;35012;47.200;9.748;2024-02-21T10:32:33;1.97;;;1.87;;
49175;SDS011;35012;47.200;9.748;2024-02-21T10:35:02;2.70;;;2.50;;
49175;SDS011;35012;47.200;9.748;2024-02-21T10:37:31;2.20;;;2.10;;
49175;SDS011;35012;47.200;9.748;2024-02-21T10:40:00;1.87;;;1.77;;
49175;SDS011;35012;47.200;9.748;2024-02-21T10:42:28;1.80;;;1.70;;
49175;SDS011;35012;47.200;9.748;2024-02-21T10:45:00;1.83;;;1.50;;
49175;SDS011;35012;47.200;9.748;2024-02-21T10:47:29;1.10;;;1.10;;
49175;SDS011;35012;47.200;9.748;2024-02-21T10:49:57;1.53;;;1.43;;
49175;SDS011;35012;47.200;9.748;2024-02-21T10:55:20;1.13;;;1.13;;
49175;SDS011;35012;47.200;9.748;2024-02-21T10:57:48;1.00;;;1.00;;
49175;SDS011;35012;47.200;9.748;2024-02-21T11:00:15;0.80;;;0.80;;
49175;SDS011;35012;47.200;9.748;2024-02-21T11:02:42;0.90;;;0.90;;
49175;SDS011;35012;47.200;9.748;2024-02-21T11:05:08;1.07;;;1.07;;
49175;SDS011;35012;47.200;9.748;2024-02-21T11:07:35;1.07;;;1.07;;
49175;SDS011;35012;47.200;9.748;2024-02-21T11:10:01;1.70;;;1.60;;
49175;SDS011;35012;47.200;9.748;2024-02-21T11:12:28;1.30;;;1.30;;
49175;SDS011;35012;47.200;9.748;2024-02-21T11:15:03;1.53;;;1.53;;
49175;SDS011;35012;47.200;9.748;2024-02-21T11:17:31;1.60;;;1.60;;
49175;SDS011;35012;47.200;9.748;2024-02-21T11:19:57;1.70;;;1.60;;
49175;SDS011;35012;47.200;9.748;2024-02-21T11:22:24;1.40;;;1.40;;
49175;SDS011;35012;47.200;9.748;2024-02-21T11:24:54;1.80;;;1.70;;
49175;SDS011;35012;47.200;9.748;2024-02-21T11:27:21;1.63;;;1.60;;
49175;SDS011;35012;47.200;9.748;2024-02-21T11:29:54;1.67;;;1.67;;
49175;SDS011;35012;47.200;9.748;2024-02-21T11:32:21;1.70;;;1.70;;
49175;SDS011;35012;47.200;9.748;2024-02-21T11:37:26;1.33;;;1.33;;
49175;SDS011;35012;47.200;9.748;2024-02-21T11:39:53;1.50;;;1.50;;
49175;SDS011;35012;47.200;9.748;2024-02-21T11:42:19;2.23;;;1.83;;
49175;SDS011;35012;47.200;9.748;2024-02-21T11:44:45;1.00;;;1.00;;
49175;SDS011;35012;47.200;9.748;2024-02-21T11:47:10;0.77;;;0.77;;
49175;SDS011;35012;47.200;9.748;2024-02-21T11:49:37;0.80;;;0.80;;
49175;SDS011;35012;47.200;9.748;2024-02-21T11:52:04;1.00;;;1.00;;
49175;SDS011;35012;47.200;9.748;2024-02-21T11:54:30;0.80;;;0.80;;
49175;SDS011;35012;47.200;9.748;2024-02-21T11:56:56;0.80;;;0.80;;
49175;SDS011;35012;47.200;9.748;2024-02-21T11:59:22;0.90;;;0.90;;
49175;SDS011;35012;47.200;9.748;2024-02-21T12:01:50;0.90;;;0.90;;
49175;SDS011;35012;47.200;9.748;2024-02-21T12:04:19;0.90;;;0.90;;
49175;SDS011;35012;47.200;9.748;2024-02-21T12:06:45;0.90;;;0.90;;
49175;SDS011;35012;47.200;9.748;2024-02-21T12:09:14;0.90;;;0.90;;
49175;SDS011;35012;47.200;9.748;2024-02-21T12:11:43;0.90;;;0.90;;
49175;SDS011;35012;47.200;9.748;2024-02-21T12:14:09;0.90;;;0.90;;
49175;SDS011;35012;47.200;9.748;2024-02-21T12:16:35;1.00;;;1.00;;
49175;SDS011;35012;47.200;9.748;2024-02-21T12:19:04;0.83;;;0.83;;
49175;SDS011;35012;47.200;9.748;2024-02-21T12:21:30;1.43;;;1.17;;
49175;SDS011;35012;47.200;9.748;2024-02-21T12:23:57;0.90;;;0.90;;
49175;SDS011;35012;47.200;9.748;2024-02-21T12:26:23;0.87;;;0.87;;
49175;SDS011;35012;47.200;9.748;2024-02-21T12:28:49;1.10;;;1.10;;
49175;SDS011;35012;47.200;9.748;2024-02-21T12:31:15;1.20;;;1.20;;
49175;SDS011;35012;47.200;9.748;2024-02-21T12:33:41;1.20;;;1.20;;
49175;SDS011;35012;47.200;9.748;2024-02-21T12:36:07;1.70;;;1.70;;
49175;SDS011;35012;47.200;9.748;2024-02-21T12:38:34;1.60;;;1.60;;
49175;SDS011;35012;47.200;9.748;2024-02-21T12:41:00;1.60;;;1.60;;
49175;SDS011;35012;47.200;9.748;2024-02-21T12:43:26;1.73;;;1.63;;
49175;SDS011;35012;47.200;9.748;2024-02-21T12:45:52;1.70;;;1.70;;
49175;SDS011;35012;47.200;9.748;2024-02-21T12:48:17;2.00;;;1.93;;
49175;SDS011;35012;47.200;9.748;2024-02-21T12:50:49;1.40;;;1.40;;
49175;SDS011;35012;47.200;9.748;2024-02-21T12:53:17;1.77;;;1.77;;
49175;SDS011;35012;47.200;9.748;2024-02-21T12:55:49;1.93;;;1.87;;
49175;SDS011;35012;47.200;9.748;2024-02-21T12:58:15;2.20;;;2.10;;
49175;SDS011;35012;47.200;9.748;2024-02-21T13:00:41;1.77;;;1.77;;
49175;SDS011;35012;47.200;9.748;2024-02-21T13:03:06;1.90;;;1.90;;
49175;SDS011;35012;47.200;9.748;2024-02-21T13:05:32;1.93;;;1.90;;
49175;SDS011;35012;47.200;9.748;2024-02-21T13:07:58;1.70;;;1.70;;
49175;SDS011;35012;47.200;9.748;2024-02-21T13:10:24;2.60;;;2.43;;
49175;SDS011;35012;47.200;9.748;2024-02-21T13:12:50;1.70;;;1.70;;
49175;SDS011;35012;47.200;9.748;2024-02-21T13:15:16;1.70;;;1.70;;
49175;SDS011;35012;47.200;9.748;2024-02-21T13:17:43;1.30;;;1.30;;
49175;SDS011;35012;47.200;9.748;2024-02-21T13:20:09;1.53;;;1.47;;
49175;SDS011;35012;47.200;9.748;2024-02-21T13:22:36;1.17;;;1.17;;
49175;SDS011;35012;47.200;9.748;2024-02-21T13:25:01;1.10;;;1.10;;
49175;SDS011;35012;47.200;9.748;2024-02-21T13:27:27;1.00;;;1.00;;
49175;SDS011;35012;47.200;9.748;2024-02-21T13:29:52;1.43;;;1.10;;
49175;SDS011;35012;47.200;9.748;2024-02-21T13:32:18;1.07;;;1.07;;
49175;SDS011;35012;47.200;9.748;2024-02-21T13:34:44;1.07;;;1.07;;
49175;SDS011;35012;47.200;9.748;2024-02-21T13:37:09;1.30;;;1.30;;
49175;SDS011;35012;47.200;9.748;2024-02-21T13:39:35;1.40;;;1.40;;
49175;SDS011;35012;47.200;9.748;2024-02-21T13:42:01;1.90;;;1.80;;
49175;SDS011;35012;47.200;9.748;2024-02-21T13:44:29;1.50;;;1.50;;
49175;SDS011;35012;47.200;9.748;2024-02-21T13:46:55;2.10;;;2.00;;
49175;SDS011;35012;47.200;9.748;2024-02-21T13:49:20;1.87;;;1.87;;
49175;SDS011;35012;47.200;9.748;2024-02-21T13:51:46;1.63;;;1.63;;
49175;SDS011;35012;47.200;9.748;2024-02-21T13:54:12;1.80;;;1.70;;
49175;SDS011;35012;47.200;9.748;2024-02-21T13:56:41;1.83;;;1.73;;
49175;SDS011;35012;47.200;9.748;2024-02-21T13:59:07;2.00;;;1.90;;
49175;SDS011;35012;47.200;9.748;2024-02-21T14:01:33;1.53;;;1.53;;
49175;SDS011;35012;47.200;9.748;2024-02-21T14:03:58;1.80;;;1.80;;
49175;SDS011;35012;47.200;9.748;2024-02-21T14:06:24;1.73;;;1.70;;
49175;SDS011;35012;47.200;9.748;2024-02-21T14:08:50;1.60;;;1.60;;
49175;SDS011;35012;47.200;9.748;2024-02-21T14:11:15;2.13;;;1.97;;
49175;SDS011;35012;47.200;9.748;2024-02-21T14:13:41;2.07;;;1.93;;
49175;SDS011;35012;47.200;9.748;2024-02-21T14:16:09;1.67;;;1.67;;
49175;SDS011;35012;47.200;9.748;2024-02-21T14:18:39;1.70;;;1.60;;
49175;SDS011;35012;47.200;9.748;2024-02-21T14:21:07;1.43;;;1.43;;
49175;SDS011;35012;47.200;9.748;2024-02-21T14:23:35;1.57;;;1.57;;
49175;SDS011;35012;47.200;9.748;2024-02-21T14:26:02;1.40;;;1.40;;
49175;SDS011;35012;47.200;9.748;2024-02-21T14:28:28;2.70;;;1.93;;
49175;SDS011;35012;47.200;9.748;2024-02-21T14:30:54;1.37;;;1.37;;
49175;SDS011;35012;47.200;9.748;2024-02-21T14:33:22;1.20;;;1.20;;
49175;SDS011;35012;47.200;9.748;2024-02-21T14:35:49;1.13;;;1.13;;
49175;SDS011;35012;47.200;9.748;2024-02-21T14:38:16;1.20;;;1.20;;
49175;SDS011;35012;47.200;9.748;2024-02-21T14:40:42;1.20;;;1.20;;
49175;SDS011;35012;47.200;9.748;2024-02-21T14:43:08;1.43;;;1.33;;
49175;SDS011;35012;47.200;9.748;2024-02-21T14:45:33;1.03;;;1.03;;
49175;SDS011;35012;47.200;9.748;2024-02-21T14:47:59;0.97;;;0.97;;
49175;SDS011;35012;47.200;9.748;2024-02-21T14:50:24;0.97;;;0.97;;
49175;SDS011;35012;47.200;9.748;2024-02-21T14:52:50;1.10;;;1.03;;
49175;SDS011;35012;47.200;9.748;2024-02-21T14:55:16;1.07;;;1.07;;
49175;SDS011;35012;47.200;9.748;2024-02-21T14:57:41;0.90;;;0.90;;